Time;durP1;ratioP1;P1;durP2;ratioP2;P2;SDS_P1;SDS_P2;PMS_P1;PMS_P2;Temp;Humidity;BMP_temperature;BMP_pressure;BME280_temperature;BME280_humidity;BME280_pressure;Samples;Min_cycle;Max_cycle;Signal;HPM_P1;HPM_P2
2022/10/01 00:00:27;;;;;;;8.20;7.40;;;10.10;99.90;;;;;;5028467;28;20192;-58
2022/10/01 00:02:56;;;;;;;7.37;6.67;;;10.10;99.90;;;;;;5030337;28;20208;-60
2022/10/01 00:05:21;;;;;;;8.80;7.90;;;10.10;99.90;;;;;;5032723;28;20194;-60
2022/10/01 00:07:47;;;;;;;8.87;7.77;;;10.10;99.90;;;;;;5030952;28;20706;-60
2022/10/01 00:10:14;;;;;;;8.57;7.47;;;10.10;99.90;;;;;;5028330;28;20196;-65
2022/10/01 00:12:44;;;;;;;8.20;7.47;;;10.10;99.90;;;;;;5035485;28;20211;-66
2022/10/01 00:15:11;;;;;;;8.57;7.63;;;10.10;99.90;;;;;;5023187;28;20188;-62
2022/10/01 00:17:37;;;;;;;8.43;7.63;;;10.10;99.90;;;;;;5028360;28;20673;-61
2022/10/01 00:20:04;;;;;;;8.47;7.73;;;10.00;99.90;;;;;;5034907;28;20227;-62
2022/10/01 00:22:31;;;;;;;8.57;7.77;;;10.00;99.90;;;;;;5037737;28;20916;-62
2022/10/01 00:24:58;;;;;;;10.63;7.90;;;10.00;99.90;;;;;;5012470;28;20196;-62
2022/10/01 00:27:24;;;;;;;8.27;7.47;;;9.90;99.90;;;;;;5025318;28;20302;-62
2022/10/01 00:29:50;;;;;;;7.63;6.97;;;9.90;99.90;;;;;;5013318;28;20728;-61
2022/10/01 00:32:15;;;;;;;8.00;7.20;;;9.90;99.90;;;;;;5035924;28;20199;-62
2022/10/01 00:34:40;;;;;;;8.43;7.57;;;9.90;99.90;;;;;;5027000;28;20207;-61
2022/10/01 00:37:08;;;;;;;9.93;7.33;;;9.80;99.90;;;;;;5032420;28;20196;-61
2022/10/01 00:39:33;;;;;;;8.33;7.53;;;9.80;99.90;;;;;;5016931;28;20184;-61
2022/10/01 00:41:59;;;;;;;8.20;7.40;;;9.80;99.90;;;;;;5037337;28;20521;-62
2022/10/01 00:44:31;;;;;;;8.60;7.67;;;9.80;99.90;;;;;;5024937;28;20176;-61
2022/10/01 00:47:06;;;;;;;7.87;6.97;;;9.70;99.90;;;;;;5042249;28;20211;-62
2022/10/01 00:49:35;;;;;;;10.30;7.17;;;9.70;99.90;;;;;;5026705;28;20191;-62
2022/10/01 00:52:04;;;;;;;9.33;8.43;;;9.70;99.90;;;;;;5032859;28;20232;-62
2022/10/01 00:54:51;;;;;;;8.40;7.57;;;9.70;99.90;;;;;;5026481;28;20664;-80
2022/10/01 00:57:22;;;;;;;8.30;7.47;;;9.70;99.90;;;;;;5022117;28;20208;-62
2022/10/01 00:59:49;;;;;;;8.83;7.93;;;9.70;99.90;;;;;;5017047;28;20289;-63
2022/10/01 01:02:14;;;;;;;9.07;8.00;;;9.60;99.90;;;;;;5030540;28;20208;-62
2022/10/01 01:04:40;;;;;;;9.07;8.17;;;9.60;99.90;;;;;;5018085;28;20550;-61
2022/10/01 01:07:07;;;;;;;8.73;7.90;;;9.60;99.90;;;;;;5030900;28;20254;-61
2022/10/01 01:09:36;;;;;;;10.37;7.73;;;9.60;99.90;;;;;;5014554;28;20248;-61
2022/10/01 01:12:23;;;;;;;8.87;8.07;;;9.60;99.90;;;;;;5035653;28;20275;-61
2022/10/01 01:15:15;;;;;;;9.30;8.27;;;9.50;99.90;;;;;;5026312;28;20184;-61
2022/10/01 01:17:57;;;;;;;8.47;7.47;;;9.50;99.90;;;;;;5018422;28;20575;-61
2022/10/01 01:20:31;;;;;;;12.20;7.17;;;9.50;99.90;;;;;;5019903;28;20210;-61
2022/10/01 01:23:15;;;;;;;9.03;8.13;;;9.50;99.90;;;;;;5023058;28;20211;-61
2022/10/01 01:25:47;;;;;;;8.40;7.43;;;9.50;99.90;;;;;;5028049;28;20257;-62
2022/10/01 01:28:25;;;;;;;10.33;8.17;;;9.40;99.90;;;;;;5020678;28;20252;-62
2022/10/01 01:30:55;;;;;;;10.23;8.63;;;9.40;99.90;;;;;;5011228;28;20691;-62
2022/10/01 01:33:23;;;;;;;8.17;7.37;;;9.40;99.90;;;;;;5016244;28;20197;-62
2022/10/01 01:36:05;;;;;;;8.80;8.00;;;9.40;99.90;;;;;;5026317;28;20223;-62
2022/10/01 01:38:37;;;;;;;9.63;8.67;;;9.40;99.90;;;;;;5019018;28;20203;-62
2022/10/01 01:41:04;;;;;;;9.60;8.00;;;9.30;99.90;;;;;;5013815;28;20792;-61
2022/10/01 01:43:35;;;;;;;9.80;8.80;;;9.30;99.90;;;;;;5026379;28;20200;-61
2022/10/01 01:46:04;;;;;;;10.90;7.80;;;9.30;99.90;;;;;;5012659;28;20261;-62
2022/10/01 01:48:33;;;;;;;8.40;7.57;;;9.30;99.90;;;;;;5028318;28;20196;-62
2022/10/01 01:51:08;;;;;;;8.90;8.00;;;9.30;99.90;;;;;;5042297;28;20231;-62
2022/10/01 01:53:34;;;;;;;9.10;8.20;;;9.30;99.90;;;;;;5027947;28;20206;-62
2022/10/01 01:56:00;;;;;;;9.70;8.50;;;9.30;99.90;;;;;;5044816;28;20555;-62
2022/10/01 01:58:27;;;;;;;8.50;7.70;;;9.30;99.90;;;;;;5021796;28;20730;-62
2022/10/01 02:00:53;;;;;;;11.10;9.17;;;9.30;99.90;;;;;;5029963;28;20219;-62
2022/10/01 02:03:25;;;;;;;10.57;7.50;;;9.30;99.90;;;;;;5030664;28;20241;-62
2022/10/01 02:06:22;;;;;;;8.53;7.73;;;9.30;99.90;;;;;;5030543;28;20436;-62
2022/10/01 02:09:18;;;;;;;11.80;8.80;;;9.30;99.90;;;;;;5018265;28;20213;-62
2022/10/01 02:12:07;;;;;;;9.93;8.90;;;9.30;99.90;;;;;;5025680;28;20187;-62
2022/10/01 02:14:41;;;;;;;10.10;8.77;;;9.20;99.90;;;;;;5016097;28;20192;-62
2022/10/01 02:17:33;;;;;;;10.23;9.23;;;9.20;99.90;;;;;;5019374;28;20194;-62
2022/10/01 02:20:14;;;;;;;9.37;8.47;;;9.20;99.90;;;;;;5032782;28;20238;-62
2022/10/01 02:22:58;;;;;;;9.10;8.30;;;9.20;99.90;;;;;;5008375;28;20200;-61
2022/10/01 02:25:29;;;;;;;10.37;9.37;;;9.20;99.90;;;;;;5019131;28;20199;-62
2022/10/01 02:28:00;;;;;;;10.37;8.90;;;9.20;99.90;;;;;;5022754;28;20215;-62
2022/10/01 02:30:28;;;;;;;12.17;9.03;;;9.20;99.90;;;;;;5022398;28;20179;-62
2022/10/01 02:32:57;;;;;;;10.30;8.97;;;9.20;99.90;;;;;;5035961;28;20681;-62
2022/10/01 02:35:25;;;;;;;9.63;8.67;;;9.20;99.90;;;;;;5025272;28;20639;-62
2022/10/01 02:37:55;;;;;;;9.40;8.23;;;9.20;99.90;;;;;;5023739;28;20202;-62
2022/10/01 02:40:25;;;;;;;10.50;9.50;;;9.20;99.90;;;;;;5012788;28;20224;-62
2022/10/01 02:42:55;;;;;;;9.70;8.77;;;9.20;99.90;;;;;;5028828;28;20207;-62
2022/10/01 02:45:23;;;;;;;10.27;9.03;;;9.20;99.90;;;;;;5023350;28;20191;-63
2022/10/01 02:47:59;;;;;;;9.77;8.40;;;9.20;99.90;;;;;;5029030;28;20754;-62
2022/10/01 02:50:31;;;;;;;8.67;7.93;;;9.20;99.90;;;;;;5018724;28;20566;-62
2022/10/01 02:53:05;;;;;;;9.77;8.77;;;9.20;99.90;;;;;;5013470;28;20224;-62
2022/10/01 02:55:35;;;;;;;8.97;7.93;;;9.20;99.90;;;;;;5017867;28;20263;-62
2022/10/01 02:58:00;;;;;;;9.47;8.50;;;9.20;99.90;;;;;;5027240;28;20703;-60
2022/10/01 03:00:27;;;;;;;8.67;7.77;;;9.20;99.90;;;;;;5014582;28;20188;-62
2022/10/01 03:02:53;;;;;;;11.33;8.83;;;9.20;99.90;;;;;;5022382;28;20286;-62
2022/10/01 03:05:19;;;;;;;10.23;7.87;;;9.30;99.90;;;;;;5024417;28;20299;-62
2022/10/01 03:07:45;;;;;;;8.47;7.60;;;9.20;99.90;;;;;;5032975;28;20225;-62
2022/10/01 03:10:11;;;;;;;9.13;8.33;;;9.20;99.90;;;;;;5020190;28;20622;-62
2022/10/01 03:12:40;;;;;;;8.80;7.93;;;9.20;99.90;;;;;;5033880;28;20195;-62
2022/10/01 03:15:06;;;;;;;8.63;7.83;;;9.20;99.90;;;;;;5024266;28;20848;-62
2022/10/01 03:17:31;;;;;;;9.57;8.67;;;9.30;99.90;;;;;;5031445;28;20366;-62
2022/10/01 03:19:57;;;;;;;9.60;8.60;;;9.20;99.90;;;;;;5034651;28;20187;-61
2022/10/01 03:22:23;;;;;;;9.03;8.13;;;9.20;99.90;;;;;;5023006;28;20283;-62
2022/10/01 03:24:49;;;;;;;8.90;8.00;;;9.20;99.90;;;;;;5023557;28;20223;-62
2022/10/01 03:27:16;;;;;;;10.03;8.60;;;9.20;99.90;;;;;;5038246;28;20331;-62
2022/10/01 03:29:42;;;;;;;9.13;8.23;;;9.20;99.90;;;;;;5022731;28;20199;-66
2022/10/01 03:32:07;;;;;;;10.63;9.53;;;9.20;99.90;;;;;;5035689;28;20727;-61
2022/10/01 03:34:33;;;;;;;13.30;9.37;;;9.20;99.90;;;;;;5020183;28;20228;-61
2022/10/01 03:36:58;;;;;;;10.03;8.63;;;9.20;99.90;;;;;;5040290;28;20212;-61
2022/10/01 03:39:24;;;;;;;8.93;8.03;;;9.20;99.90;;;;;;5020868;28;20679;-62
2022/10/01 03:41:49;;;;;;;9.90;8.90;;;9.20;99.90;;;;;;5036638;28;20195;-62
2022/10/01 03:44:15;;;;;;;9.40;8.60;;;9.20;99.90;;;;;;5029475;28;20200;-63
2022/10/01 03:46:40;;;;;;;9.93;8.13;;;9.20;99.90;;;;;;5043453;28;20577;-62
2022/10/01 03:49:06;;;;;;;10.37;9.13;;;9.20;99.90;;;;;;5025767;28;20243;-62
2022/10/01 03:51:32;;;;;;;9.83;8.90;;;9.20;99.90;;;;;;5036899;28;20585;-62
2022/10/01 03:53:58;;;;;;;10.07;9.10;;;9.20;99.90;;;;;;5029925;28;20203;-61
2022/10/01 03:56:24;;;;;;;10.20;8.47;;;9.20;99.90;;;;;;5032324;28;20226;-61
2022/10/01 03:58:50;;;;;;;11.23;8.93;;;9.20;99.90;;;;;;5025883;28;20227;-61
2022/10/01 04:01:16;;;;;;;14.43;9.13;;;9.20;99.90;;;;;;5045794;28;20257;-61
2022/10/01 04:03:42;;;;;;;11.97;9.27;;;9.20;99.90;;;;;;5034635;28;20299;-61
2022/10/01 04:06:08;;;;;;;9.03;8.23;;;9.20;99.90;;;;;;5030479;28;20719;-62
2022/10/01 04:08:33;;;;;;;10.43;9.10;;;9.20;99.90;;;;;;5035442;28;20206;-61
2022/10/01 04:10:59;;;;;;;9.00;8.13;;;9.20;99.90;;;;;;5027467;28;20198;-62
2022/10/01 04:13:26;;;;;;;9.77;8.73;;;9.20;99.90;;;;;;5030375;28;20202;-62
2022/10/01 04:15:51;;;;;;;9.57;7.70;;;9.20;99.90;;;;;;5041098;28;20331;-62
2022/10/01 04:18:20;;;;;;;13.37;9.20;;;9.20;99.90;;;;;;5028070;28;20199;-61
2022/10/01 04:20:46;;;;;;;8.70;7.90;;;9.20;99.90;;;;;;5038399;28;20194;-61
2022/10/01 04:23:11;;;;;;;9.53;8.43;;;9.20;99.90;;;;;;5031700;28;20209;-61
2022/10/01 04:25:37;;;;;;;8.83;8.03;;;9.20;99.90;;;;;;5023289;28;20180;-62
2022/10/01 04:28:05;;;;;;;10.37;7.40;;;9.10;99.90;;;;;;5036620;28;20246;-61
2022/10/01 04:30:33;;;;;;;8.40;7.70;;;9.10;99.90;;;;;;5027157;28;20662;-61
2022/10/01 04:32:58;;;;;;;11.10;8.57;;;9.10;99.90;;;;;;5033932;28;20203;-62
2022/10/01 04:35:24;;;;;;;8.27;7.30;;;9.10;99.90;;;;;;5026672;28;20190;-62
2022/10/01 04:38:02;;;;;;;8.97;8.17;;;9.10;99.90;;;;;;5034018;28;20226;-62
2022/10/01 04:40:33;;;;;;;9.07;8.13;;;9.10;99.90;;;;;;5024770;28;20278;-62
2022/10/01 04:43:01;;;;;;;8.53;7.50;;;9.10;99.90;;;;;;5037474;28;20257;-62
2022/10/01 04:45:28;;;;;;;8.53;7.73;;;9.10;99.90;;;;;;5022950;28;20244;-62
2022/10/01 04:47:55;;;;;;;8.50;7.60;;;9.10;99.90;;;;;;5039401;28;20772;-63
2022/10/01 04:50:22;;;;;;;8.53;7.80;;;9.10;99.90;;;;;;5040287;28;20270;-62
2022/10/01 04:52:48;;;;;;;10.27;8.53;;;9.10;99.90;;;;;;5034433;28;20285;-62
2022/10/01 04:55:15;;;;;;;9.47;7.97;;;9.10;99.90;;;;;;5022303;28;20193;-62
2022/10/01 04:57:40;;;;;;;8.70;7.87;;;9.10;99.90;;;;;;5029543;28;20199;-62
2022/10/01 05:00:09;;;;;;;7.83;7.13;;;9.10;99.90;;;;;;5032070;28;20195;-62
2022/10/01 05:02:35;;;;;;;10.10;7.87;;;9.10;99.90;;;;;;5045878;28;20911;-62
2022/10/01 05:05:02;;;;;;;8.23;7.53;;;9.10;99.90;;;;;;5013804;28;20216;-62
2022/10/01 05:07:31;;;;;;;9.10;8.30;;;9.10;99.90;;;;;;5030546;28;20313;-62
2022/10/01 05:09:57;;;;;;;8.87;8.00;;;9.10;99.90;;;;;;5016645;28;20211;-62
2022/10/01 05:12:24;;;;;;;7.87;7.17;;;9.10;99.90;;;;;;5045228;28;20192;-62
2022/10/01 05:14:50;;;;;;;8.37;7.47;;;9.10;99.90;;;;;;5019476;28;20215;-62
2022/10/01 05:17:17;;;;;;;9.37;7.83;;;9.10;99.90;;;;;;5035898;28;20284;-62
2022/10/01 05:19:42;;;;;;;11.40;7.73;;;9.10;99.90;;;;;;5027673;28;20200;-62
2022/10/01 05:22:08;;;;;;;8.37;7.43;;;9.10;99.90;;;;;;5037663;28;20848;-64
2022/10/01 05:24:33;;;;;;;8.70;7.30;;;9.10;99.90;;;;;;5027628;28;20196;-64
2022/10/01 05:26:59;;;;;;;8.03;7.23;;;9.10;99.90;;;;;;5025956;28;20268;-62
2022/10/01 05:29:25;;;;;;;8.00;7.20;;;9.00;99.90;;;;;;5027173;28;20200;-62
2022/10/01 05:31:50;;;;;;;11.23;7.97;;;9.10;99.90;;;;;;5029670;28;20196;-64
2022/10/01 05:34:15;;;;;;;9.70;8.23;;;9.10;99.90;;;;;;5029710;28;20195;-62
2022/10/01 05:36:41;;;;;;;8.13;7.43;;;9.10;99.90;;;;;;5044385;28;20649;-63
2022/10/01 05:39:06;;;;;;;8.57;7.73;;;9.10;99.90;;;;;;5031721;28;20201;-62
2022/10/01 05:41:32;;;;;;;7.87;7.07;;;9.10;99.90;;;;;;5029350;28;20204;-62
2022/10/01 05:43:57;;;;;;;8.20;7.40;;;9.20;99.90;;;;;;5024253;28;20459;-62
2022/10/01 05:46:23;;;;;;;10.40;7.23;;;9.20;99.90;;;;;;5026828;28;20539;-63
2022/10/01 05:48:50;;;;;;;10.13;6.43;;;9.30;99.90;;;;;;5034015;28;20584;-64
2022/10/01 05:51:16;;;;;;;8.40;7.57;;;9.30;99.90;;;;;;5033751;28;20223;-64
2022/10/01 05:53:42;;;;;;;7.67;6.77;;;9.30;99.90;;;;;;5027089;28;20264;-63
2022/10/01 05:56:08;;;;;;;7.90;7.20;;;9.30;99.90;;;;;;5015246;28;20643;-63
2022/10/01 05:58:33;;;;;;;7.00;6.30;;;9.40;99.90;;;;;;5028817;28;20230;-64
2022/10/01 06:00:59;;;;;;;7.17;6.47;;;9.40;99.90;;;;;;5025508;28;20881;-63
2022/10/01 06:03:27;;;;;;;7.10;6.13;;;9.50;99.90;;;;;;5024238;28;20207;-63
2022/10/01 06:05:53;;;;;;;7.17;6.53;;;9.60;99.90;;;;;;5011405;28;20211;-63
2022/10/01 06:08:20;;;;;;;7.03;6.33;;;9.70;99.90;;;;;;5024238;28;20567;-63
2022/10/01 06:10:46;;;;;;;10.53;5.80;;;9.70;99.90;;;;;;5025390;28;20710;-63
2022/10/01 06:13:16;;;;;;;7.23;6.50;;;9.80;99.90;;;;;;5024514;28;20195;-63
2022/10/01 06:15:43;;;;;;;6.20;5.67;;;9.80;99.90;;;;;;5012973;28;20197;-63
2022/10/01 06:18:10;;;;;;;7.70;6.60;;;9.80;99.90;;;;;;5026143;28;20293;-63
2022/10/01 06:20:36;;;;;;;7.57;6.07;;;9.80;99.90;;;;;;5024532;28;20185;-62
2022/10/01 06:23:06;;;;;;;7.37;6.73;;;9.90;99.90;;;;;;5022646;28;20200;-63
2022/10/01 06:25:31;;;;;;;10.47;6.90;;;9.90;99.90;;;;;;5025229;28;20202;-62
2022/10/01 06:27:58;;;;;;;10.43;6.57;;;10.00;99.90;;;;;;5035730;28;20215;-62
2022/10/01 06:30:25;;;;;;;7.13;5.60;;;10.00;99.90;;;;;;5024666;28;20179;-62
2022/10/01 06:32:52;;;;;;;6.70;5.83;;;10.10;99.90;;;;;;5030227;28;20283;-62
2022/10/01 06:35:19;;;;;;;7.90;7.10;;;10.10;99.90;;;;;;5013627;28;20288;-63
2022/10/01 06:37:45;;;;;;;7.37;6.43;;;10.20;99.90;;;;;;5026735;28;20213;-64
2022/10/01 06:40:11;;;;;;;6.43;5.83;;;10.20;99.90;;;;;;5023445;28;20266;-63
2022/10/01 06:42:36;;;;;;;6.50;5.90;;;10.20;99.90;;;;;;5037782;28;20207;-65
2022/10/01 06:45:02;;;;;;;6.63;5.83;;;10.20;99.90;;;;;;5016014;28;20227;-64
2022/10/01 06:47:27;;;;;;;7.73;5.70;;;10.30;99.90;;;;;;5014654;28;20209;-64
2022/10/01 06:49:53;;;;;;;7.03;6.37;;;10.30;99.90;;;;;;5011591;28;20659;-65
2022/10/01 06:55:03;;;;;;;7.63;6.87;;;10.30;99.90;;;;;;5016901;28;20331;-63
2022/10/01 06:57:28;;;;;;;6.90;5.90;;;10.30;99.90;;;;;;5036969;28;20294;-61
2022/10/01 06:59:54;;;;;;;6.23;5.63;;;10.30;99.90;;;;;;5020575;28;20663;-62
2022/10/01 07:02:28;;;;;;;7.70;5.90;;;10.40;99.90;;;;;;5029586;28;20725;-63
2022/10/01 07:04:58;;;;;;;6.90;6.30;;;10.40;99.90;;;;;;5012338;28;20976;-62
2022/10/01 07:07:36;;;;;;;8.50;5.67;;;10.40;99.90;;;;;;5029992;28;20216;-61
2022/10/01 07:10:03;;;;;;;6.57;5.97;;;10.50;99.90;;;;;;5019910;28;20205;-62
2022/10/01 07:12:28;;;;;;;7.50;6.17;;;10.50;99.90;;;;;;5035010;28;20198;-62
2022/10/01 07:14:54;;;;;;;8.03;6.80;;;10.50;99.90;;;;;;5024792;28;20286;-61
2022/10/01 07:17:20;;;;;;;10.17;7.00;;;10.60;99.90;;;;;;5037317;28;20192;-62
2022/10/01 07:19:45;;;;;;;6.73;6.07;;;10.60;99.90;;;;;;5035429;28;20740;-62
2022/10/01 07:22:11;;;;;;;7.30;6.20;;;10.70;99.90;;;;;;5039092;28;20208;-62
2022/10/01 07:24:37;;;;;;;7.30;6.67;;;10.70;99.90;;;;;;5033158;28;20623;-61
2022/10/01 07:27:03;;;;;;;7.40;6.03;;;10.80;99.90;;;;;;5043894;28;20332;-61
2022/10/01 07:29:30;;;;;;;7.03;6.17;;;10.80;99.90;;;;;;5032225;28;20207;-62
2022/10/01 07:32:00;;;;;;;6.90;5.60;;;10.90;99.90;;;;;;5040626;28;20659;-63
2022/10/01 07:34:27;;;;;;;9.37;6.47;;;10.90;99.90;;;;;;5030447;28;20255;-62
2022/10/01 07:36:55;;;;;;;8.67;6.00;;;11.00;99.90;;;;;;5040379;28;20307;-62
2022/10/01 07:39:21;;;;;;;7.03;6.40;;;11.00;99.90;;;;;;5027611;28;20203;-61
2022/10/01 07:41:46;;;;;;;6.87;6.10;;;11.10;99.90;;;;;;5030027;28;20197;-61
2022/10/01 07:44:12;;;;;;;7.03;6.43;;;11.20;99.90;;;;;;5032762;28;20211;-61
2022/10/01 07:46:38;;;;;;;10.77;5.57;;;11.30;99.90;;;;;;5027592;28;20744;-61
2022/10/01 07:49:04;;;;;;;6.37;5.77;;;11.40;99.90;;;;;;5037683;28;20668;-61
2022/10/01 07:51:29;;;;;;;6.57;5.87;;;11.50;99.90;;;;;;5029315;28;20290;-61
2022/10/01 07:53:55;;;;;;;6.30;5.70;;;11.60;99.90;;;;;;5026181;28;20255;-62
2022/10/01 07:56:21;;;;;;;7.03;6.33;;;11.70;99.90;;;;;;5027958;28;20620;-62
2022/10/01 07:58:46;;;;;;;7.70;6.17;;;11.70;99.90;;;;;;5031239;28;20749;-62
2022/10/01 08:01:12;;;;;;;7.00;5.83;;;11.70;99.90;;;;;;5027725;28;20248;-60
2022/10/01 08:03:37;;;;;;;6.03;5.47;;;11.80;99.90;;;;;;5040432;28;20224;-61
2022/10/01 08:06:04;;;;;;;9.40;6.60;;;11.90;99.90;;;;;;5027487;28;20213;-61
2022/10/01 08:08:30;;;;;;;7.63;5.43;;;11.90;99.90;;;;;;5042658;28;20274;-62
2022/10/01 08:10:56;;;;;;;6.53;5.90;;;12.00;99.90;;;;;;5017142;28;20273;-61
2022/10/01 08:13:23;;;;;;;12.70;6.17;;;12.00;99.90;;;;;;5030217;28;20193;-62
2022/10/01 08:15:52;;;;;;;6.80;6.10;;;12.10;99.90;;;;;;5021782;28;20564;-64
2022/10/01 08:18:18;;;;;;;6.87;6.27;;;12.20;99.90;;;;;;5035783;28;20292;-64
2022/10/01 08:20:44;;;;;;;7.40;6.33;;;12.30;99.90;;;;;;5022030;28;20188;-65
2022/10/01 08:23:13;;;;;;;5.87;5.33;;;12.30;99.90;;;;;;5033315;28;20658;-64
2022/10/01 08:25:39;;;;;;;12.40;6.60;;;12.40;99.90;;;;;;5024998;28;20292;-65
2022/10/01 08:28:06;;;;;;;7.03;6.33;;;12.40;99.90;;;;;;5034717;28;20250;-65
2022/10/01 08:30:31;;;;;;;6.67;5.93;;;12.40;99.90;;;;;;5019126;28;20210;-64
2022/10/01 08:32:58;;;;;;;7.27;5.60;;;12.50;99.90;;;;;;5039396;28;20362;-63
2022/10/01 08:35:25;;;;;;;6.27;5.77;;;12.40;99.90;;;;;;5023667;28;20748;-63
2022/10/01 08:37:51;;;;;;;6.10;5.60;;;12.40;99.90;;;;;;5031350;28;20591;-63
2022/10/01 08:40:19;;;;;;;6.13;5.53;;;12.40;99.90;;;;;;5023199;28;20272;-63
2022/10/01 08:43:01;;;;;;;5.30;4.90;;;12.40;99.90;;;;;;5037436;28;20792;-63
2022/10/01 08:45:44;;;;;;;5.87;5.37;;;12.50;99.90;;;;;;5022459;28;20210;-63
2022/10/01 08:48:25;;;;;;;9.20;5.30;;;12.60;99.90;;;;;;5019163;28;20229;-63
2022/10/01 08:51:02;;;;;;;6.13;5.53;;;12.70;99.90;;;;;;5017812;28;20232;-63
2022/10/01 08:53:44;;;;;;;5.70;4.87;;;12.80;99.90;;;;;;5026355;28;20218;-63
2022/10/01 08:56:26;;;;;;;11.23;4.87;;;12.90;99.90;;;;;;5014735;28;20505;-62
2022/10/01 08:58:57;;;;;;;6.30;4.53;;;13.10;99.90;;;;;;5026183;28;20207;-63
2022/10/01 09:01:24;;;;;;;5.07;4.60;;;13.10;99.90;;;;;;5024552;28;20185;-64
2022/10/01 09:03:49;;;;;;;6.03;5.03;;;13.20;99.90;;;;;;5037980;28;20862;-63
2022/10/01 09:06:27;;;;;;;4.60;4.20;;;13.20;99.90;;;;;;5026530;28;20287;-63
2022/10/01 09:09:31;;;;;;;5.80;5.30;;;13.20;99.90;;;;;;5022583;28;20195;-63
2022/10/01 09:12:41;;;;;;;5.80;4.70;;;13.30;99.90;;;;;;5023503;28;20200;-63
2022/10/01 09:15:31;;;;;;;6.73;4.47;;;13.40;99.90;;;;;;5030842;28;20198;-63
2022/10/01 09:18:14;;;;;;;7.23;4.17;;;13.50;99.90;;;;;;5021277;28;20284;-63
2022/10/01 09:20:51;;;;;;;4.63;4.23;;;13.70;99.90;;;;;;5022177;28;20291;-63
2022/10/01 09:23:26;;;;;;;4.17;3.80;;;13.80;99.90;;;;;;5005039;28;20196;-63
2022/10/01 09:25:51;;;;;;;4.50;4.07;;;13.80;99.90;;;;;;5014314;28;20733;-63
2022/10/01 09:28:28;;;;;;;4.33;3.93;;;13.90;99.90;;;;;;5031421;28;20195;-63
2022/10/01 09:31:17;;;;;;;5.77;3.40;;;14.00;99.90;;;;;;5016255;28;20215;-63
2022/10/01 09:33:56;;;;;;;4.70;3.87;;;14.00;99.90;;;;;;5016203;28;20266;-64
2022/10/01 09:36:44;;;;;;;6.53;4.70;;;14.10;99.90;;;;;;5016152;28;20191;-63
2022/10/01 09:39:18;;;;;;;3.60;3.30;;;14.20;99.90;;;;;;5015961;28;20485;-65
2022/10/01 09:41:45;;;;;;;5.47;3.73;;;14.30;99.90;;;;;;5025403;28;20202;-64
2022/10/01 09:44:17;;;;;;;3.77;3.47;;;14.30;99.90;;;;;;5037336;28;20641;-63
2022/10/01 09:46:44;;;;;;;4.07;3.67;;;14.20;99.90;;;;;;5009146;28;20520;-64
2022/10/01 09:49:42;;;;;;;5.87;4.13;;;14.10;99.90;;;;;;5039226;28;20711;-64
2022/10/01 09:52:18;;;;;;;3.77;3.27;;;14.00;99.90;;;;;;5024759;28;20235;-64
2022/10/01 09:54:56;;;;;;;4.23;3.30;;;13.90;99.90;;;;;;5034132;28;20274;-63
2022/10/01 09:57:41;;;;;;;4.00;3.60;;;13.80;99.90;;;;;;5019277;28;20199;-64
2022/10/01 10:00:17;;;;;;;3.50;3.23;;;13.60;99.90;;;;;;5018514;28;20230;-61
2022/10/01 10:02:47;;;;;;;3.87;3.37;;;13.50;99.90;;;;;;5005057;28;20199;-61
2022/10/01 10:05:15;;;;;;;3.23;2.93;;;13.30;99.90;;;;;;5015872;28;20232;-61
2022/10/01 10:07:48;;;;;;;4.20;3.53;;;13.20;99.90;;;;;;5040018;28;20234;-61
2022/10/01 10:10:23;;;;;;;3.00;2.80;;;13.20;99.90;;;;;;5029816;28;20203;-72
2022/10/01 10:12:56;;;;;;;3.13;2.83;;;13.20;99.90;;;;;;5026106;28;20193;-60
2022/10/01 10:15:25;;;;;;;2.73;2.47;;;13.30;99.90;;;;;;5016798;28;20195;-60
2022/10/01 10:17:51;;;;;;;5.40;2.80;;;13.30;99.90;;;;;;5021533;28;20197;-61
2022/10/01 10:20:31;;;;;;;3.10;2.80;;;13.30;99.90;;;;;;5013969;28;20581;-59
2022/10/01 10:23:18;;;;;;;7.57;4.73;;;13.30;99.90;;;;;;5017098;28;20278;-62
2022/10/01 10:25:59;;;;;;;3.37;3.13;;;13.10;99.90;;;;;;5008714;28;20258;-59
2022/10/01 10:28:26;;;;;;;4.07;3.43;;;13.00;99.90;;;;;;5019240;28;20261;-61
2022/10/01 10:30:53;;;;;;;6.33;4.23;;;12.90;99.90;;;;;;5022701;28;20715;-59
2022/10/01 10:33:20;;;;;;;4.57;4.03;;;12.70;99.90;;;;;;5038004;28;20207;-59
2022/10/01 10:35:56;;;;;;;5.07;3.87;;;12.70;99.90;;;;;;5018893;28;20207;-60
2022/10/01 10:38:25;;;;;;;7.80;4.33;;;12.60;99.90;;;;;;5023202;28;20218;-59
2022/10/01 10:40:51;;;;;;;4.97;4.57;;;12.50;99.90;;;;;;5019343;28;20775;-60
2022/10/01 10:43:29;;;;;;;4.90;4.40;;;12.50;99.90;;;;;;5029637;28;20196;-60
2022/10/01 10:45:55;;;;;;;5.43;4.93;;;12.40;99.90;;;;;;5019016;28;20209;-61
2022/10/01 10:48:27;;;;;;;6.30;5.70;;;12.30;99.90;;;;;;5036861;28;20221;-62
2022/10/01 10:51:02;;;;;;;6.53;5.57;;;12.20;99.90;;;;;;5020215;28;20227;-62
2022/10/01 10:53:37;;;;;;;6.17;4.60;;;12.20;99.90;;;;;;5032796;28;20248;-60
2022/10/01 10:56:05;;;;;;;5.70;5.20;;;12.20;99.90;;;;;;5018426;28;20789;-72
2022/10/01 10:58:33;;;;;;;5.87;5.17;;;12.20;99.90;;;;;;5030886;28;20216;-62
2022/10/01 11:01:08;;;;;;;5.20;4.70;;;12.30;99.90;;;;;;5009368;28;20679;-63
2022/10/01 11:03:37;;;;;;;7.30;4.73;;;12.50;99.90;;;;;;5017478;28;20180;-62
2022/10/01 11:06:11;;;;;;;6.27;5.67;;;12.40;99.90;;;;;;5023318;28;20196;-63
2022/10/01 11:08:38;;;;;;;5.73;5.27;;;12.50;99.90;;;;;;5024460;28;20251;-63
2022/10/01 11:11:33;;;;;;;5.60;4.90;;;12.50;99.90;;;;;;5018728;28;20210;-63
2022/10/01 11:14:10;;;;;;;6.03;5.47;;;12.40;99.90;;;;;;5017910;28;20190;-62
2022/10/01 11:17:14;;;;;;;6.50;5.73;;;12.40;99.90;;;;;;5017209;28;20331;-64
2022/10/01 11:20:17;;;;;;;6.90;5.40;;;12.40;99.90;;;;;;5019353;28;20213;-63
2022/10/01 11:23:05;;;;;;;6.17;4.87;;;12.50;99.90;;;;;;5023636;28;20204;-63
2022/10/01 11:25:46;;;;;;;5.87;5.23;;;12.50;99.90;;;;;;5014030;28;20547;-64
2022/10/01 11:28:42;;;;;;;5.87;4.90;;;12.40;99.90;;;;;;5022959;28;20212;-64
2022/10/01 11:31:25;;;;;;;4.07;3.77;;;12.40;99.90;;;;;;5020421;28;20207;-65
2022/10/01 11:33:59;;;;;;;7.33;4.37;;;12.40;99.90;;;;;;5011891;28;20184;-63
2022/10/01 11:36:48;;;;;;;4.63;4.23;;;12.50;99.90;;;;;;5023503;28;20223;-64
2022/10/01 11:39:17;;;;;;;4.57;4.17;;;12.50;99.90;;;;;;5015121;28;20186;-63
2022/10/01 11:41:48;;;;;;;4.00;3.70;;;12.50;99.90;;;;;;5016934;28;20185;-64
2022/10/01 11:44:17;;;;;;;7.60;4.07;;;12.50;99.90;;;;;;5017416;28;20190;-64
2022/10/01 11:47:03;;;;;;;4.67;4.27;;;12.50;99.90;;;;;;5020494;28;20202;-61
2022/10/01 11:50:01;;;;;;;4.80;4.40;;;12.50;99.90;;;;;;5020309;28;20200;-64
2022/10/01 11:52:34;;;;;;;4.27;3.97;;;12.40;99.90;;;;;;5023081;28;20221;-63
2022/10/01 11:58:49;;;;;;;5.27;4.10;;;12.30;99.90;;;;;;5017210;28;20663;-64
2022/10/01 12:00:41;;;;;;;4.73;4.23;;;12.30;99.90;;;;;;5018749;28;20276;-63
2022/10/01 12:03:18;;;;;;;4.00;3.70;;;12.30;99.90;;;;;;5026039;28;20212;-63
2022/10/01 12:05:44;;;;;;;3.90;3.53;;;12.30;99.90;;;;;;5022964;28;20205;-63
2022/10/01 12:08:24;;;;;;;3.13;2.90;;;12.40;99.90;;;;;;5033955;28;20253;-62
2022/10/01 12:10:58;;;;;;;5.27;3.80;;;12.40;99.90;;;;;;5013157;28;20194;-63
2022/10/01 12:13:32;;;;;;;4.07;3.27;;;12.40;99.90;;;;;;5021413;28;20273;-62
2022/10/01 12:16:25;;;;;;;4.10;3.70;;;12.40;99.90;;;;;;5020010;28;20210;-68
2022/10/01 12:18:58;;;;;;;3.83;3.00;;;12.40;99.90;;;;;;5019820;28;20652;-66
2022/10/01 12:21:33;;;;;;;2.90;2.70;;;12.50;99.90;;;;;;5020796;28;20670;-62
2022/10/01 12:24:24;;;;;;;3.00;2.80;;;12.50;99.90;;;;;;5026256;28;20182;-63
2022/10/01 12:27:22;;;;;;;3.00;2.80;;;12.40;99.90;;;;;;5020297;28;20217;-63
2022/10/01 12:30:00;;;;;;;4.17;3.17;;;12.30;99.90;;;;;;5008503;28;20232;-64
2022/10/01 12:32:51;;;;;;;3.40;3.20;;;12.10;99.90;;;;;;5019625;28;20177;-64
2022/10/01 12:35:37;;;;;;;3.00;2.80;;;12.00;99.90;;;;;;5017753;28;20220;-64
2022/10/01 12:38:27;;;;;;;3.30;3.10;;;11.80;99.90;;;;;;5024318;28;20666;-63
2022/10/01 12:41:23;;;;;;;3.77;3.47;;;11.80;99.90;;;;;;5010826;28;20208;-63
2022/10/01 12:44:13;;;;;;;4.43;3.50;;;11.70;99.90;;;;;;5019960;28;20184;-64
2022/10/01 12:46:52;;;;;;;5.20;3.90;;;11.60;99.90;;;;;;5021349;28;20490;-64
2022/10/01 12:49:27;;;;;;;5.60;3.80;;;11.60;99.90;;;;;;5016796;28;20252;-65
2022/10/01 12:52:01;;;;;;;4.43;3.87;;;11.50;99.90;;;;;;5026857;28;20253;-65
2022/10/01 12:54:50;;;;;;;4.73;4.30;;;11.50;99.90;;;;;;5019039;28;20242;-68
2022/10/01 12:57:23;;;;;;;4.60;4.20;;;11.50;99.90;;;;;;5019233;28;20582;-67
2022/10/01 13:00:09;;;;;;;6.67;4.47;;;11.40;99.90;;;;;;5021436;28;20205;-68
2022/10/01 13:02:44;;;;;;;4.80;4.40;;;11.50;99.90;;;;;;5016865;28;20905;-64
2022/10/01 13:05:26;;;;;;;9.37;8.17;;;11.50;99.90;;;;;;5016759;28;20692;-63
2022/10/01 13:08:08;;;;;;;7.67;4.97;;;11.50;99.90;;;;;;5029098;28;20315;-64
2022/10/01 13:10:51;;;;;;;8.63;7.63;;;11.50;99.90;;;;;;5022321;28;20195;-64
2022/10/01 13:13:31;;;;;;;5.50;4.97;;;11.60;99.90;;;;;;5025242;28;20269;-67
2022/10/01 13:16:35;;;;;;;4.67;4.23;;;11.60;99.90;;;;;;5014497;28;20253;-65
2022/10/01 13:19:23;;;;;;;3.70;3.40;;;11.60;99.90;;;;;;5023521;28;20174;-66